sensor_id;sensor_type;location;lat;lon;timestamp;P1;durP1;ratioP1;P2;durP2;ratioP2
42018;SDS011;27703;51.980;5.848;2022-12-07T00:00:49;8.88;;;4.57;;
42018;SDS011;27703;51.980;5.848;2022-12-07T00:03:15;5.57;;;4.22;;
42018;SDS011;27703;51.980;5.848;2022-12-07T00:05:40;5.90;;;4.80;;
42018;SDS011;27703;51.980;5.848;2022-12-07T00:08:06;4.75;;;3.72;;
42018;SDS011;27703;51.980;5.848;2022-12-07T00:10:33;6.43;;;2.97;;
42018;SDS011;27703;51.980;5.848;2022-12-07T00:12:59;7.00;;;4.20;;
42018;SDS011;27703;51.980;5.848;2022-12-07T00:15:25;5.00;;;3.88;;
42018;SDS011;27703;51.980;5.848;2022-12-07T00:17:50;6.00;;;4.25;;
42018;SDS011;27703;51.980;5.848;2022-12-07T00:20:16;7.20;;;3.97;;
42018;SDS011;27703;51.980;5.848;2022-12-07T00:22:41;11.63;;;5.07;;
42018;SDS011;27703;51.980;5.848;2022-12-07T00:25:07;7.05;;;3.72;;
42018;SDS011;27703;51.980;5.848;2022-12-07T00:27:32;8.05;;;3.63;;
42018;SDS011;27703;51.980;5.848;2022-12-07T00:29:58;9.75;;;3.63;;
42018;SDS011;27703;51.980;5.848;2022-12-07T00:32:23;8.07;;;3.55;;
42018;SDS011;27703;51.980;5.848;2022-12-07T00:34:49;7.72;;;3.70;;
42018;SDS011;27703;51.980;5.848;2022-12-07T00:37:14;10.05;;;4.70;;
42018;SDS011;27703;51.980;5.848;2022-12-07T00:39:40;9.10;;;4.10;;
42018;SDS011;27703;51.980;5.848;2022-12-07T00:42:05;7.03;;;3.92;;
42018;SDS011;27703;51.980;5.848;2022-12-07T00:44:31;9.85;;;3.85;;
42018;SDS011;27703;51.980;5.848;2022-12-07T00:46:56;6.47;;;3.58;;
42018;SDS011;27703;51.980;5.848;2022-12-07T00:49:22;8.98;;;4.05;;
42018;SDS011;27703;51.980;5.848;2022-12-07T00:51:48;9.63;;;3.60;;
42018;SDS011;27703;51.980;5.848;2022-12-07T00:54:14;9.65;;;4.35;;
42018;SDS011;27703;51.980;5.848;2022-12-07T00:56:39;12.52;;;4.22;;
42018;SDS011;27703;51.980;5.848;2022-12-07T00:59:05;8.48;;;3.65;;
42018;SDS011;27703;51.980;5.848;2022-12-07T01:01:33;6.70;;;3.85;;
42018;SDS011;27703;51.980;5.848;2022-12-07T01:04:00;10.63;;;5.30;;
42018;SDS011;27703;51.980;5.848;2022-12-07T01:06:26;10.82;;;3.85;;
42018;SDS011;27703;51.980;5.848;2022-12-07T01:08:53;7.25;;;3.80;;
42018;SDS011;27703;51.980;5.848;2022-12-07T01:11:20;6.80;;;4.05;;
42018;SDS011;27703;51.980;5.848;2022-12-07T01:13:48;9.88;;;3.55;;
42018;SDS011;27703;51.980;5.848;2022-12-07T01:16:15;5.70;;;3.72;;
42018;SDS011;27703;51.980;5.848;2022-12-07T01:18:42;7.30;;;2.58;;
42018;SDS011;27703;51.980;5.848;2022-12-07T01:21:11;6.57;;;2.85;;
42018;SDS011;27703;51.980;5.848;2022-12-07T01:23:41;3.75;;;3.13;;
42018;SDS011;27703;51.980;5.848;2022-12-07T01:26:10;4.03;;;3.10;;
42018;SDS011;27703;51.980;5.848;2022-12-07T01:28:37;6.80;;;3.42;;
42018;SDS011;27703;51.980;5.848;2022-12-07T01:31:05;5.15;;;3.45;;
42018;SDS011;27703;51.980;5.848;2022-12-07T01:33:33;8.35;;;3.22;;
42018;SDS011;27703;51.980;5.848;2022-12-07T01:36:02;6.40;;;3.25;;
42018;SDS011;27703;51.980;5.848;2022-12-07T01:38:32;6.82;;;3.22;;
42018;SDS011;27703;51.980;5.848;2022-12-07T01:40:59;8.70;;;3.65;;
42018;SDS011;27703;51.980;5.848;2022-12-07T01:43:26;11.02;;;3.35;;
42018;SDS011;27703;51.980;5.848;2022-12-07T01:45:53;9.30;;;4.15;;
42018;SDS011;27703;51.980;5.848;2022-12-07T01:48:20;6.10;;;3.80;;
42018;SDS011;27703;51.980;5.848;2022-12-07T01:50:50;9.65;;;4.25;;
42018;SDS011;27703;51.980;5.848;2022-12-07T01:53:18;8.13;;;3.10;;
42018;SDS011;27703;51.980;5.848;2022-12-07T01:55:45;5.85;;;4.47;;
42018;SDS011;27703;51.980;5.848;2022-12-07T01:58:14;9.02;;;4.22;;
42018;SDS011;27703;51.980;5.848;2022-12-07T02:00:41;8.85;;;3.40;;
42018;SDS011;27703;51.980;5.848;2022-12-07T02:03:11;7.03;;;3.03;;
42018;SDS011;27703;51.980;5.848;2022-12-07T02:05:44;6.45;;;2.92;;
42018;SDS011;27703;51.980;5.848;2022-12-07T02:08:11;5.60;;;3.80;;
42018;SDS011;27703;51.980;5.848;2022-12-07T02:10:38;10.50;;;3.33;;
42018;SDS011;27703;51.980;5.848;2022-12-07T02:13:05;6.32;;;3.47;;
42018;SDS011;27703;51.980;5.848;2022-12-07T02:24:22;4.93;;;2.25;;
42018;SDS011;27703;51.980;5.848;2022-12-07T02:29:34;5.00;;;3.00;;
42018;SDS011;27703;51.980;5.848;2022-12-07T02:34:42;9.65;;;2.97;;
42018;SDS011;27703;51.980;5.848;2022-12-07T02:37:58;4.53;;;2.65;;
42018;SDS011;27703;51.980;5.848;2022-12-07T02:40:29;9.35;;;2.42;;
42018;SDS011;27703;51.980;5.848;2022-12-07T02:43:02;9.00;;;3.33;;
42018;SDS011;27703;51.980;5.848;2022-12-07T02:45:33;9.63;;;2.88;;
42018;SDS011;27703;51.980;5.848;2022-12-07T02:48:02;6.93;;;2.05;;
42018;SDS011;27703;51.980;5.848;2022-12-07T02:50:30;4.82;;;1.90;;
42018;SDS011;27703;51.980;5.848;2022-12-07T02:52:55;7.50;;;2.90;;
42018;SDS011;27703;51.980;5.848;2022-12-07T02:55:23;6.93;;;3.42;;
42018;SDS011;27703;51.980;5.848;2022-12-07T03:00:46;5.68;;;2.25;;
42018;SDS011;27703;51.980;5.848;2022-12-07T03:03:32;4.88;;;2.10;;
42018;SDS011;27703;51.980;5.848;2022-12-07T03:06:08;6.05;;;1.65;;
42018;SDS011;27703;51.980;5.848;2022-12-07T03:08:47;4.10;;;2.00;;
42018;SDS011;27703;51.980;5.848;2022-12-07T03:11:29;3.67;;;1.55;;
42018;SDS011;27703;51.980;5.848;2022-12-07T03:14:09;8.30;;;2.15;;
42018;SDS011;27703;51.980;5.848;2022-12-07T03:16:57;6.57;;;1.60;;
42018;SDS011;27703;51.980;5.848;2022-12-07T03:19:27;5.20;;;2.00;;
42018;SDS011;27703;51.980;5.848;2022-12-07T03:22:06;8.10;;;1.98;;
42018;SDS011;27703;51.980;5.848;2022-12-07T03:24:42;3.83;;;1.00;;
42018;SDS011;27703;51.980;5.848;2022-12-07T03:27:13;6.80;;;2.10;;
42018;SDS011;27703;51.980;5.848;2022-12-07T03:35:08;8.00;;;2.22;;
42018;SDS011;27703;51.980;5.848;2022-12-07T03:40:24;8.77;;;2.28;;
42018;SDS011;27703;51.980;5.848;2022-12-07T03:42:54;10.77;;;1.60;;
42018;SDS011;27703;51.980;5.848;2022-12-07T03:45:22;6.97;;;2.03;;
42018;SDS011;27703;51.980;5.848;2022-12-07T03:48:07;10.13;;;2.42;;
42018;SDS011;27703;51.980;5.848;2022-12-07T03:53:22;4.55;;;1.70;;
42018;SDS011;27703;51.980;5.848;2022-12-07T03:55:54;5.35;;;1.45;;
42018;SDS011;27703;51.980;5.848;2022-12-07T03:58:21;8.45;;;1.92;;
42018;SDS011;27703;51.980;5.848;2022-12-07T04:00:50;4.18;;;1.40;;
42018;SDS011;27703;51.980;5.848;2022-12-07T04:03:16;6.28;;;2.13;;
42018;SDS011;27703;51.980;5.848;2022-12-07T04:05:42;6.15;;;2.15;;
42018;SDS011;27703;51.980;5.848;2022-12-07T04:08:08;7.43;;;1.83;;
42018;SDS011;27703;51.980;5.848;2022-12-07T04:10:34;3.53;;;1.20;;
42018;SDS011;27703;51.980;5.848;2022-12-07T04:12:59;8.25;;;1.67;;
42018;SDS011;27703;51.980;5.848;2022-12-07T04:15:25;8.93;;;1.48;;
42018;SDS011;27703;51.980;5.848;2022-12-07T04:17:51;4.55;;;0.98;;
42018;SDS011;27703;51.980;5.848;2022-12-07T04:20:17;4.40;;;1.02;;
42018;SDS011;27703;51.980;5.848;2022-12-07T04:22:42;7.63;;;0.93;;
42018;SDS011;27703;51.980;5.848;2022-12-07T04:25:08;5.63;;;1.20;;
42018;SDS011;27703;51.980;5.848;2022-12-07T04:27:34;3.17;;;1.00;;
42018;SDS011;27703;51.980;5.848;2022-12-07T04:29:59;5.60;;;1.02;;
42018;SDS011;27703;51.980;5.848;2022-12-07T04:32:25;6.90;;;1.23;;
42018;SDS011;27703;51.980;5.848;2022-12-07T04:34:50;5.90;;;1.52;;
42018;SDS011;27703;51.980;5.848;2022-12-07T04:37:16;6.22;;;1.00;;
42018;SDS011;27703;51.980;5.848;2022-12-07T04:39:42;6.88;;;1.15;;
42018;SDS011;27703;51.980;5.848;2022-12-07T04:42:09;6.90;;;0.82;;
42018;SDS011;27703;51.980;5.848;2022-12-07T04:44:35;7.47;;;1.15;;
42018;SDS011;27703;51.980;5.848;2022-12-07T04:47:01;3.22;;;0.60;;
42018;SDS011;27703;51.980;5.848;2022-12-07T04:49:26;5.07;;;0.80;;
42018;SDS011;27703;51.980;5.848;2022-12-07T04:51:52;9.25;;;1.25;;
42018;SDS011;27703;51.980;5.848;2022-12-07T04:54:18;1.98;;;0.80;;
42018;SDS011;27703;51.980;5.848;2022-12-07T04:56:44;3.33;;;0.70;;
42018;SDS011;27703;51.980;5.848;2022-12-07T04:59:10;4.80;;;0.90;;
42018;SDS011;27703;51.980;5.848;2022-12-07T05:01:36;6.80;;;1.00;;
42018;SDS011;27703;51.980;5.848;2022-12-07T05:04:02;2.92;;;0.80;;
42018;SDS011;27703;51.980;5.848;2022-12-07T05:06:28;4.15;;;0.93;;
42018;SDS011;27703;51.980;5.848;2022-12-07T05:08:53;2.60;;;0.50;;
42018;SDS011;27703;51.980;5.848;2022-12-07T05:11:19;3.33;;;0.50;;
42018;SDS011;27703;51.980;5.848;2022-12-07T05:14:03;4.97;;;0.50;;
42018;SDS011;27703;51.980;5.848;2022-12-07T05:16:46;3.65;;;0.73;;
42018;SDS011;27703;51.980;5.848;2022-12-07T05:19:13;3.55;;;0.75;;
42018;SDS011;27703;51.980;5.848;2022-12-07T05:21:39;8.82;;;0.60;;
42018;SDS011;27703;51.980;5.848;2022-12-07T05:24:05;2.67;;;0.50;;
42018;SDS011;27703;51.980;5.848;2022-12-07T05:26:32;3.05;;;0.80;;
42018;SDS011;27703;51.980;5.848;2022-12-07T05:28:58;7.55;;;0.57;;
42018;SDS011;27703;51.980;5.848;2022-12-07T05:31:23;4.85;;;0.60;;
42018;SDS011;27703;51.980;5.848;2022-12-07T05:33:50;4.47;;;1.55;;
42018;SDS011;27703;51.980;5.848;2022-12-07T05:36:16;2.40;;;1.15;;
42018;SDS011;27703;51.980;5.848;2022-12-07T05:38:42;4.97;;;0.55;;
42018;SDS011;27703;51.980;5.848;2022-12-07T05:41:08;7.65;;;0.63;;
42018;SDS011;27703;51.980;5.848;2022-12-07T05:43:54;6.43;;;0.50;;
42018;SDS011;27703;51.980;5.848;2022-12-07T05:46:20;4.65;;;0.68;;
42018;SDS011;27703;51.980;5.848;2022-12-07T05:48:45;2.17;;;0.40;;
42018;SDS011;27703;51.980;5.848;2022-12-07T05:51:11;4.93;;;0.50;;
42018;SDS011;27703;51.980;5.848;2022-12-07T05:53:36;4.32;;;0.40;;
42018;SDS011;27703;51.980;5.848;2022-12-07T05:56:02;1.60;;;0.50;;
42018;SDS011;27703;51.980;5.848;2022-12-07T05:58:27;6.75;;;0.47;;
42018;SDS011;27703;51.980;5.848;2022-12-07T06:01:11;6.57;;;0.70;;
42018;SDS011;27703;51.980;5.848;2022-12-07T06:03:37;2.83;;;0.40;;
42018;SDS011;27703;51.980;5.848;2022-12-07T06:06:02;4.43;;;0.63;;
42018;SDS011;27703;51.980;5.848;2022-12-07T06:08:28;3.30;;;0.45;;
42018;SDS011;27703;51.980;5.848;2022-12-07T06:10:54;3.17;;;0.40;;
42018;SDS011;27703;51.980;5.848;2022-12-07T06:13:39;4.93;;;0.93;;
42018;SDS011;27703;51.980;5.848;2022-12-07T06:16:05;2.10;;;0.50;;
42018;SDS011;27703;51.980;5.848;2022-12-07T06:18:31;1.98;;;0.40;;
42018;SDS011;27703;51.980;5.848;2022-12-07T06:20:56;5.03;;;0.77;;
42018;SDS011;27703;51.980;5.848;2022-12-07T06:23:22;2.97;;;0.82;;
42018;SDS011;27703;51.980;5.848;2022-12-07T06:25:47;1.73;;;0.40;;
42018;SDS011;27703;51.980;5.848;2022-12-07T06:28:13;4.47;;;0.60;;
42018;SDS011;27703;51.980;5.848;2022-12-07T06:30:38;4.35;;;0.65;;
42018;SDS011;27703;51.980;5.848;2022-12-07T06:33:04;2.65;;;0.47;;
42018;SDS011;27703;51.980;5.848;2022-12-07T06:35:29;3.33;;;0.70;;
42018;SDS011;27703;51.980;5.848;2022-12-07T06:37:57;3.97;;;1.42;;
42018;SDS011;27703;51.980;5.848;2022-12-07T06:40:22;2.70;;;0.50;;
42018;SDS011;27703;51.980;5.848;2022-12-07T06:42:48;3.17;;;0.40;;
42018;SDS011;27703;51.980;5.848;2022-12-07T06:45:13;3.95;;;0.93;;
42018;SDS011;27703;51.980;5.848;2022-12-07T06:47:39;5.47;;;0.40;;
42018;SDS011;27703;51.980;5.848;2022-12-07T06:50:04;5.32;;;0.57;;
42018;SDS011;27703;51.980;5.848;2022-12-07T06:52:32;2.08;;;0.40;;
42018;SDS011;27703;51.980;5.848;2022-12-07T06:54:58;5.35;;;0.40;;
42018;SDS011;27703;51.980;5.848;2022-12-07T06:57:24;4.43;;;0.50;;
42018;SDS011;27703;51.980;5.848;2022-12-07T06:59:50;6.40;;;0.70;;
42018;SDS011;27703;51.980;5.848;2022-12-07T07:02:15;2.13;;;0.40;;
42018;SDS011;27703;51.980;5.848;2022-12-07T07:04:41;2.33;;;0.40;;
42018;SDS011;27703;51.980;5.848;2022-12-07T07:07:07;4.75;;;0.40;;
42018;SDS011;27703;51.980;5.848;2022-12-07T07:09:32;2.70;;;0.40;;
42018;SDS011;27703;51.980;5.848;2022-12-07T07:11:58;2.47;;;0.65;;
42018;SDS011;27703;51.980;5.848;2022-12-07T07:14:23;6.13;;;0.43;;
42018;SDS011;27703;51.980;5.848;2022-12-07T07:16:49;4.00;;;0.50;;
42018;SDS011;27703;51.980;5.848;2022-12-07T07:19:15;3.90;;;0.50;;
42018;SDS011;27703;51.980;5.848;2022-12-07T07:21:40;3.63;;;0.52;;
42018;SDS011;27703;51.980;5.848;2022-12-07T07:24:06;2.08;;;0.38;;
42018;SDS011;27703;51.980;5.848;2022-12-07T07:26:31;7.20;;;0.82;;
42018;SDS011;27703;51.980;5.848;2022-12-07T07:28:57;4.93;;;0.40;;
42018;SDS011;27703;51.980;5.848;2022-12-07T07:31:23;5.43;;;0.40;;
42018;SDS011;27703;51.980;5.848;2022-12-07T07:33:48;3.83;;;0.38;;
42018;SDS011;27703;51.980;5.848;2022-12-07T07:36:14;7.38;;;0.82;;
42018;SDS011;27703;51.980;5.848;2022-12-07T07:38:39;5.55;;;0.43;;
42018;SDS011;27703;51.980;5.848;2022-12-07T07:41:05;2.45;;;0.30;;
42018;SDS011;27703;51.980;5.848;2022-12-07T07:43:30;3.53;;;0.30;;
42018;SDS011;27703;51.980;5.848;2022-12-07T07:45:57;3.50;;;0.60;;
42018;SDS011;27703;51.980;5.848;2022-12-07T07:48:22;3.83;;;0.30;;
42018;SDS011;27703;51.980;5.848;2022-12-07T07:50:50;4.82;;;0.60;;
42018;SDS011;27703;51.980;5.848;2022-12-07T07:53:15;1.48;;;0.30;;
42018;SDS011;27703;51.980;5.848;2022-12-07T07:55:41;6.18;;;0.50;;
42018;SDS011;27703;51.980;5.848;2022-12-07T07:58:06;1.63;;;0.30;;
42018;SDS011;27703;51.980;5.848;2022-12-07T08:00:32;4.47;;;0.47;;
42018;SDS011;27703;51.980;5.848;2022-12-07T08:02:58;1.20;;;0.40;;
42018;SDS011;27703;51.980;5.848;2022-12-07T08:05:24;3.70;;;0.40;;
42018;SDS011;27703;51.980;5.848;2022-12-07T08:07:49;3.20;;;0.40;;
42018;SDS011;27703;51.980;5.848;2022-12-07T08:10:15;2.10;;;0.65;;
42018;SDS011;27703;51.980;5.848;2022-12-07T08:12:41;2.53;;;0.45;;
42018;SDS011;27703;51.980;5.848;2022-12-07T08:15:26;2.58;;;0.95;;
42018;SDS011;27703;51.980;5.848;2022-12-07T08:17:53;2.30;;;0.40;;
42018;SDS011;27703;51.980;5.848;2022-12-07T08:20:19;5.60;;;0.63;;
42018;SDS011;27703;51.980;5.848;2022-12-07T08:22:45;5.22;;;0.40;;
42018;SDS011;27703;51.980;5.848;2022-12-07T08:25:10;3.17;;;0.40;;
42018;SDS011;27703;51.980;5.848;2022-12-07T08:27:36;1.35;;;0.35;;
42018;SDS011;27703;51.980;5.848;2022-12-07T08:30:01;7.57;;;0.70;;
42018;SDS011;27703;51.980;5.848;2022-12-07T08:32:27;2.60;;;0.30;;
42018;SDS011;27703;51.980;5.848;2022-12-07T08:34:53;5.57;;;0.50;;
42018;SDS011;27703;51.980;5.848;2022-12-07T08:37:18;8.85;;;0.57;;
42018;SDS011;27703;51.980;5.848;2022-12-07T08:39:44;4.10;;;0.30;;
42018;SDS011;27703;51.980;5.848;2022-12-07T08:42:09;5.80;;;0.30;;
42018;SDS011;27703;51.980;5.848;2022-12-07T08:44:35;2.92;;;0.30;;
42018;SDS011;27703;51.980;5.848;2022-12-07T08:47:02;6.70;;;0.35;;
42018;SDS011;27703;51.980;5.848;2022-12-07T08:49:35;2.05;;;0.30;;
42018;SDS011;27703;51.980;5.848;2022-12-07T08:52:04;4.38;;;0.40;;
42018;SDS011;27703;51.980;5.848;2022-12-07T08:54:30;1.95;;;0.20;;
42018;SDS011;27703;51.980;5.848;2022-12-07T08:56:58;3.05;;;0.30;;
42018;SDS011;27703;51.980;5.848;2022-12-07T08:59:23;2.92;;;0.20;;
42018;SDS011;27703;51.980;5.848;2022-12-07T09:01:49;4.28;;;0.68;;
42018;SDS011;27703;51.980;5.848;2022-12-07T09:04:15;1.92;;;0.40;;
42018;SDS011;27703;51.980;5.848;2022-12-07T09:06:41;3.20;;;0.35;;
42018;SDS011;27703;51.980;5.848;2022-12-07T09:09:06;3.42;;;0.50;;
42018;SDS011;27703;51.980;5.848;2022-12-07T09:11:34;2.88;;;0.30;;
42018;SDS011;27703;51.980;5.848;2022-12-07T09:13:59;3.55;;;0.45;;
42018;SDS011;27703;51.980;5.848;2022-12-07T09:16:25;4.75;;;0.55;;
42018;SDS011;27703;51.980;5.848;2022-12-07T09:18:50;3.65;;;0.88;;
42018;SDS011;27703;51.980;5.848;2022-12-07T09:21:16;3.55;;;0.50;;
42018;SDS011;27703;51.980;5.848;2022-12-07T09:23:42;3.42;;;0.40;;
42018;SDS011;27703;51.980;5.848;2022-12-07T09:26:07;3.58;;;0.50;;
42018;SDS011;27703;51.980;5.848;2022-12-07T09:28:33;5.10;;;0.60;;
42018;SDS011;27703;51.980;5.848;2022-12-07T09:30:59;3.03;;;0.55;;
42018;SDS011;27703;51.980;5.848;2022-12-07T09:33:24;6.05;;;0.32;;
42018;SDS011;27703;51.980;5.848;2022-12-07T09:35:50;3.05;;;0.50;;
42018;SDS011;27703;51.980;5.848;2022-12-07T09:38:17;3.75;;;0.50;;
42018;SDS011;27703;51.980;5.848;2022-12-07T09:40:43;3.92;;;0.40;;
42018;SDS011;27703;51.980;5.848;2022-12-07T09:43:14;3.60;;;0.45;;
42018;SDS011;27703;51.980;5.848;2022-12-07T09:45:44;4.55;;;0.40;;
42018;SDS011;27703;51.980;5.848;2022-12-07T09:48:15;7.40;;;0.40;;
42018;SDS011;27703;51.980;5.848;2022-12-07T09:50:47;3.80;;;0.40;;
42018;SDS011;27703;51.980;5.848;2022-12-07T09:53:23;4.03;;;0.80;;
42018;SDS011;27703;51.980;5.848;2022-12-07T09:55:55;3.28;;;0.77;;
42018;SDS011;27703;51.980;5.848;2022-12-07T09:58:22;3.70;;;0.52;;
42018;SDS011;27703;51.980;5.848;2022-12-07T10:00:50;6.78;;;0.70;;
42018;SDS011;27703;51.980;5.848;2022-12-07T10:03:23;4.00;;;0.70;;
42018;SDS011;27703;51.980;5.848;2022-12-07T10:05:50;6.53;;;0.80;;
42018;SDS011;27703;51.980;5.848;2022-12-07T10:08:17;5.45;;;0.98;;
42018;SDS011;27703;51.980;5.848;2022-12-07T10:10:43;5.20;;;0.70;;
42018;SDS011;27703;51.980;5.848;2022-12-07T10:18:31;4.65;;;0.82;;
42018;SDS011;27703;51.980;5.848;2022-12-07T10:23:39;5.47;;;0.80;;
42018;SDS011;27703;51.980;5.848;2022-12-07T10:28:53;9.43;;;0.80;;
42018;SDS011;27703;51.980;5.848;2022-12-07T10:31:21;5.97;;;0.60;;
42018;SDS011;27703;51.980;5.848;2022-12-07T10:33:49;3.35;;;0.60;;
42018;SDS011;27703;51.980;5.848;2022-12-07T10:36:17;1.25;;;0.40;;
42018;SDS011;27703;51.980;5.848;2022-12-07T10:38:46;6.35;;;0.60;;
42018;SDS011;27703;51.980;5.848;2022-12-07T10:41:12;2.85;;;0.35;;
42018;SDS011;27703;51.980;5.848;2022-12-07T10:43:45;4.78;;;0.30;;
42018;SDS011;27703;51.980;5.848;2022-12-07T10:46:20;6.15;;;0.82;;
42018;SDS011;27703;51.980;5.848;2022-12-07T10:49:12;2.45;;;0.30;;
42018;SDS011;27703;51.980;5.848;2022-12-07T10:52:00;5.85;;;0.55;;
42018;SDS011;27703;51.980;5.848;2022-12-07T11:02:49;5.45;;;0.30;;
42018;SDS011;27703;51.980;5.848;2022-12-07T11:07:57;3.22;;;0.20;;
42018;SDS011;27703;51.980;5.848;2022-12-07T11:11:11;1.48;;;0.20;;
42018;SDS011;27703;51.980;5.848;2022-12-07T11:13:36;3.03;;;0.30;;
42018;SDS011;27703;51.980;5.848;2022-12-07T11:16:08;2.25;;;0.40;;
42018;SDS011;27703;51.980;5.848;2022-12-07T11:19:06;5.53;;;0.30;;
42018;SDS011;27703;51.980;5.848;2022-12-07T11:21:48;3.05;;;0.30;;
42018;SDS011;27703;51.980;5.848;2022-12-07T11:37:41;3.35;;;0.65;;
42018;SDS011;27703;51.980;5.848;2022-12-07T11:40:18;5.75;;;0.60;;
42018;SDS011;27703;51.980;5.848;2022-12-07T11:42:55;2.33;;;0.47;;
42018;SDS011;27703;51.980;5.848;2022-12-07T11:45:27;4.95;;;0.63;;
42018;SDS011;27703;51.980;5.848;2022-12-07T11:55:30;8.32;;;1.15;;
42018;SDS011;27703;51.980;5.848;2022-12-07T12:00:42;3.45;;;0.88;;
42018;SDS011;27703;51.980;5.848;2022-12-07T12:03:13;2.53;;;0.20;;
42018;SDS011;27703;51.980;5.848;2022-12-07T12:05:44;4.28;;;0.30;;
42018;SDS011;27703;51.980;5.848;2022-12-07T12:08:21;4.55;;;0.40;;
42018;SDS011;27703;51.980;5.848;2022-12-07T12:19:17;3.60;;;0.40;;
42018;SDS011;27703;51.980;5.848;2022-12-07T12:21:45;5.05;;;0.47;;
42018;SDS011;27703;51.980;5.848;2022-12-07T12:24:14;3.53;;;0.93;;
42018;SDS011;27703;51.980;5.848;2022-12-07T12:26:54;2.53;;;0.30;;
42018;SDS011;27703;51.980;5.848;2022-12-07T12:32:12;2.72;;;0.30;;
42018;SDS011;27703;51.980;5.848;2022-12-07T12:42:46;2.75;;;0.30;;
42018;SDS011;27703;51.980;5.848;2022-12-07T12:45:29;6.75;;;0.30;;
42018;SDS011;27703;51.980;5.848;2022-12-07T12:50:27;3.78;;;0.35;;
42018;SDS011;27703;51.980;5.848;2022-12-07T12:53:05;2.83;;;0.40;;
42018;SDS011;27703;51.980;5.848;2022-12-07T12:55:48;4.40;;;0.50;;
42018;SDS011;27703;51.980;5.848;2022-12-07T12:58:35;3.83;;;0.30;;
42018;SDS011;27703;51.980;5.848;2022-12-07T13:04:14;7.43;;;0.40;;
42018;SDS011;27703;51.980;5.848;2022-12-07T13:06:50;2.35;;;0.70;;
42018;SDS011;27703;51.980;5.848;2022-12-07T13:09:17;4.05;;;0.40;;
42018;SDS011;27703;51.980;5.848;2022-12-07T13:11:47;6.05;;;0.30;;
42018;SDS011;27703;51.980;5.848;2022-12-07T13:17:04;5.53;;;0.73;;
42018;SDS011;27703;51.980;5.848;2022-12-07T13:22:31;2.60;;;0.50;;
42018;SDS011;27703;51.980;5.848;2022-12-07T13:24:56;3.17;;;0.50;;
42018;SDS011;27703;51.980;5.848;2022-12-07T13:27:22;4.20;;;0.60;;
42018;SDS011;27703;51.980;5.848;2022-12-07T13:29:49;7.45;;;0.68;;
42018;SDS011;27703;51.980;5.848;2022-12-07T13:32:25;3.50;;;0.30;;
42018;SDS011;27703;51.980;5.848;2022-12-07T13:34:52;3.00;;;0.35;;
42018;SDS011;27703;51.980;5.848;2022-12-07T13:37:25;5.00;;;0.30;;
42018;SDS011;27703;51.980;5.848;2022-12-07T13:39:57;4.07;;;0.60;;
42018;SDS011;27703;51.980;5.848;2022-12-07T13:42:28;9.88;;;0.30;;
42018;SDS011;27703;51.980;5.848;2022-12-07T13:44:59;4.25;;;0.25;;
42018;SDS011;27703;51.980;5.848;2022-12-07T13:47:43;4.85;;;0.30;;
42018;SDS011;27703;51.980;5.848;2022-12-07T13:50:23;5.07;;;0.35;;
42018;SDS011;27703;51.980;5.848;2022-12-07T13:52:54;4.80;;;0.40;;
42018;SDS011;27703;51.980;5.848;2022-12-07T13:55:21;2.80;;;0.30;;
42018;SDS011;27703;51.980;5.848;2022-12-07T13:57:50;3.15;;;0.20;;
42018;SDS011;27703;51.980;5.848;2022-12-07T14:00:24;2.47;;;0.20;;
42018;SDS011;27703;51.980;5.848;2022-12-07T14:03:02;4.68;;;0.50;;
42018;SDS011;27703;51.980;5.848;2022-12-07T14:05:46;4.25;;;0.50;;
42018;SDS011;27703;51.980;5.848;2022-12-07T14:08:29;3.88;;;0.22;;
42018;SDS011;27703;51.980;5.848;2022-12-07T14:10:55;6.28;;;0.77;;
42018;SDS011;27703;51.980;5.848;2022-12-07T14:18:30;2.47;;;0.30;;
42018;SDS011;27703;51.980;5.848;2022-12-07T14:21:21;2.83;;;0.10;;
42018;SDS011;27703;51.980;5.848;2022-12-07T14:26:34;1.77;;;0.22;;
42018;SDS011;27703;51.980;5.848;2022-12-07T14:31:47;2.42;;;0.30;;
42018;SDS011;27703;51.980;5.848;2022-12-07T14:34:13;5.07;;;0.20;;
42018;SDS011;27703;51.980;5.848;2022-12-07T14:36:39;2.67;;;0.22;;
42018;SDS011;27703;51.980;5.848;2022-12-07T14:39:04;1.25;;;0.13;;
42018;SDS011;27703;51.980;5.848;2022-12-07T14:41:30;3.72;;;0.38;;
42018;SDS011;27703;51.980;5.848;2022-12-07T14:44:14;1.55;;;0.10;;
42018;SDS011;27703;51.980;5.848;2022-12-07T14:46:40;1.55;;;0.20;;
42018;SDS011;27703;51.980;5.848;2022-12-07T14:49:05;1.65;;;0.25;;
42018;SDS011;27703;51.980;5.848;2022-12-07T14:51:31;2.22;;;0.10;;
42018;SDS011;27703;51.980;5.848;2022-12-07T14:53:58;3.30;;;0.40;;
42018;SDS011;27703;51.980;5.848;2022-12-07T14:56:24;1.15;;;0.32;;
42018;SDS011;27703;51.980;5.848;2022-12-07T14:58:50;2.92;;;0.15;;
42018;SDS011;27703;51.980;5.848;2022-12-07T15:01:15;2.42;;;0.30;;
42018;SDS011;27703;51.980;5.848;2022-12-07T15:03:41;8.68;;;0.38;;
42018;SDS011;27703;51.980;5.848;2022-12-07T15:06:06;2.65;;;0.20;;
42018;SDS011;27703;51.980;5.848;2022-12-07T15:08:32;3.72;;;0.30;;
42018;SDS011;27703;51.980;5.848;2022-12-07T15:10:58;2.53;;;0.30;;
42018;SDS011;27703;51.980;5.848;2022-12-07T15:13:23;1.63;;;0.30;;
42018;SDS011;27703;51.980;5.848;2022-12-07T15:16:10;1.13;;;0.10;;
42018;SDS011;27703;51.980;5.848;2022-12-07T15:18:38;5.35;;;0.20;;
42018;SDS011;27703;51.980;5.848;2022-12-07T15:21:03;7.78;;;0.30;;
42018;SDS011;27703;51.980;5.848;2022-12-07T15:23:29;1.75;;;0.20;;
42018;SDS011;27703;51.980;5.848;2022-12-07T15:25:54;2.28;;;0.28;;
42018;SDS011;27703;51.980;5.848;2022-12-07T15:28:20;1.20;;;0.30;;
42018;SDS011;27703;51.980;5.848;2022-12-07T15:30:45;6.90;;;0.30;;
42018;SDS011;27703;51.980;5.848;2022-12-07T15:33:11;2.63;;;0.40;;
42018;SDS011;27703;51.980;5.848;2022-12-07T15:35:38;2.45;;;0.40;;
42018;SDS011;27703;51.980;5.848;2022-12-07T15:38:05;4.05;;;0.50;;
42018;SDS011;27703;51.980;5.848;2022-12-07T15:40:30;3.28;;;0.60;;
42018;SDS011;27703;51.980;5.848;2022-12-07T15:42:56;1.55;;;0.40;;
42018;SDS011;27703;51.980;5.848;2022-12-07T15:45:22;5.78;;;0.47;;
42018;SDS011;27703;51.980;5.848;2022-12-07T15:47:47;6.38;;;0.75;;
42018;SDS011;27703;51.980;5.848;2022-12-07T15:50:14;1.83;;;0.47;;
42018;SDS011;27703;51.980;5.848;2022-12-07T15:52:41;3.45;;;0.50;;
42018;SDS011;27703;51.980;5.848;2022-12-07T15:55:07;4.18;;;0.60;;
42018;SDS011;27703;51.980;5.848;2022-12-07T15:57:35;3.60;;;0.63;;
42018;SDS011;27703;51.980;5.848;2022-12-07T16:00:03;4.40;;;1.02;;
42018;SDS011;27703;51.980;5.848;2022-12-07T16:02:30;2.83;;;0.40;;
42018;SDS011;27703;51.980;5.848;2022-12-07T16:04:56;1.70;;;0.40;;
42018;SDS011;27703;51.980;5.848;2022-12-07T16:07:21;1.77;;;0.35;;
42018;SDS011;27703;51.980;5.848;2022-12-07T16:09:47;4.13;;;0.47;;
42018;SDS011;27703;51.980;5.848;2022-12-07T16:12:14;2.80;;;0.50;;
42018;SDS011;27703;51.980;5.848;2022-12-07T16:14:40;3.45;;;0.82;;
42018;SDS011;27703;51.980;5.848;2022-12-07T16:17:06;2.78;;;0.47;;
42018;SDS011;27703;51.980;5.848;2022-12-07T16:19:33;2.08;;;0.40;;
42018;SDS011;27703;51.980;5.848;2022-12-07T16:21:59;3.03;;;0.40;;
42018;SDS011;27703;51.980;5.848;2022-12-07T16:24:25;3.63;;;0.30;;
42018;SDS011;27703;51.980;5.848;2022-12-07T16:26:51;4.60;;;0.50;;
42018;SDS011;27703;51.980;5.848;2022-12-07T16:29:17;4.15;;;0.40;;
42018;SDS011;27703;51.980;5.848;2022-12-07T16:31:45;1.50;;;0.40;;
42018;SDS011;27703;51.980;5.848;2022-12-07T16:34:12;4.47;;;0.40;;
42018;SDS011;27703;51.980;5.848;2022-12-07T16:36:37;3.00;;;0.50;;
42018;SDS011;27703;51.980;5.848;2022-12-07T16:39:04;2.40;;;0.30;;
42018;SDS011;27703;51.980;5.848;2022-12-07T16:41:31;4.53;;;0.40;;
42018;SDS011;27703;51.980;5.848;2022-12-07T16:43:57;4.50;;;0.85;;
42018;SDS011;27703;51.980;5.848;2022-12-07T16:46:26;2.78;;;0.50;;
42018;SDS011;27703;51.980;5.848;2022-12-07T16:48:52;5.28;;;0.50;;
42018;SDS011;27703;51.980;5.848;2022-12-07T16:51:17;3.80;;;0.38;;